METAR Data
IDs: Format: Raw Decoded Include TAF

Data at: 1019 UTC 26 Sep 2018

K7N0 260956Z AUTO VRB04KT 10SM FEW029 BKN036 OVC075 26/22 A3004 RMK AO2 LTG DSNT N SLP172 T02560222
K7N0 260856Z AUTO 16006KT 10SM FEW110 25/23 A3003 RMK AO2 LTG DSNT NW RAE38 SLP168 P0000 60000 T02500233 56013
K7N0 260756Z AUTO VRB04KT 10SM -RA CLR 26/23 A3004 RMK AO2 LTG DSNT SE RAB06 SLP172 P0000 T02560233
K7N0 260656Z AUTO 11005KT 10SM CLR 26/23 A3005 RMK AO2 LTG DSNT NE-S RAE18 SLP176 P0000 T02610233
K7N0 260556Z AUTO VRB04KT 10SM -RA BKN080 26/23 A3007 RMK AO2 LTG DSNT E AND SE TSE11RAB52 SLP181 P0000 60000 T02610228 10278 20261 50002
K7N0 260522Z AUTO 17006KT 10SM FEW026 27/23 A3007 RMK AO2 LTG DSNT SE AND S TSE11
K7N0 260456Z AUTO 00000KT 10SM VCTS CLR 27/23 A3007 RMK AO2 LTG DSNT E AND S TSB56 SLP182 T02670233 403170256
K7N0 260356Z AUTO VRB04KT 10SM FEW049 27/23 A3007 RMK AO2 LTG DSNT S RAE07 SLP183 P0000 T02670233
K7N0 260256Z AUTO 16004KT 10SM -RA FEW026 SCT049 BKN055 27/23 A3006 RMK AO2 LTG DSNT SE AND S RAB17 SLP179 P0000 60000 T02670233 51011
K7N0 260156Z AUTO VRB04KT 10SM CLR 27/23 A3006 RMK AO2 SLP178 T02720228
K7N0 260056Z AUTO 19004KT 10SM SCT070 27/23 A3004 RMK AO2 LTG DSNT S AND SW SLP171 T02720228
K7N0 252313Z AUTO 00000KT 10SM -RA FEW012 SCT031 BKN080 27/23 A3001 RMK AO2 LTG DSNT NE AND S RAB05 P0000
K7N0 252256Z AUTO 17004KT 10SM BKN029 28/23 A3002 RMK AO2 LTG DSNT E SLP165 T02780233
K7N0 252209Z AUTO 16005KT 10SM BKN029 BKN034 28/23 A2999 RMK AO2 LTG DSNT ALQDS
K7N0 252156Z AUTO 17005KT 10SM SCT029 BKN034 BKN046 28/23 A2999 RMK AO2 LTG DSNT NE-S TSB29E44 SLP155 T02780233
K7N0 252140Z AUTO 16004KT 10SM VCTS FEW045 28/23 A2999 RMK AO2 LTG DSNT SE-W TSB29
K7N0 252056Z AUTO 15007KT 10SM CLR 28/24 A2997 RMK AO2 LTG DSNT SE AND S RAB11E28 SLP149 P0000 60142 T02830244 58027
K7N0 251956Z AUTO VRB04KT 10SM CLR 27/24 A3000 RMK AO2 LTG DSNT S TSE30RAE32 SLP158 P0001 T02720244
K7N0 251941Z AUTO 16004KT 10SM FEW065 27/24 A3001 RMK AO2 TSE30RAE32 P0001
K7N0 251903Z AUTO 17005KT 10SM -TSRA SCT008 BKN070 OVC090 27/24 A3002 RMK AO2 LTG DSNT N AND S AND W PRESFR P0000
K7N0 251859Z AUTO 15006KT 4SM -TSRA SCT010 BKN024 OVC100 27/24 A3003 RMK AO2 LTG DSNT N AND S AND W CIG 019V033 PRESFR P0000
K7N0 251856Z AUTO VRB06KT 1 1/4SM -TSRA BR BKN010 BKN024 OVC075 26/24 A3003 RMK AO2 LTG DSNT N AND S AND W TSB1758E17B21RAB06 CIG 006V016 SLP169 P0141 T02610244
K7N0 251853Z AUTO VRB03KT 1SM +TSRA BR BKN010 OVC024 26/24 A3003 RMK AO2 LTG DSNT N AND S AND W TSB1758E17B21RAB06 CIG 006V017 P0141 RVRNO
K7N0 251835Z AUTO 16008KT 1/2SM +TSRA FG SCT009 BKN015 OVC026 26/24 A3005 RMK AO2 LTG DSNT ALQDS TSB1758E17B21RAB06 P0077 RVRNO
K7N0 251829Z AUTO VRB05KT 1SM +TSRA BR FEW009 SCT017 OVC028 26/24 A3004 RMK AO2 LTG DSNT ALQDS TSB1758E17B21RAB06 P0050 RVRNO
K7N0 251817Z AUTO 33008KT 1 1/4SM +RA BR FEW007 BKN029 OVC042 27/25 A3003 RMK AO2 VIS 1/2V5 TSB1758E17RAB06 P0026
K7N0 251815Z AUTO VRB04KT 2SM TSRA BR FEW007 BKN029 BKN042 27/25 A3005 RMK AO2 VIS 1/2V5 LTG DSNT S AND NW TSB1758RAB06 P0015
K7N0 251809Z AUTO 26005KT 6SM TSRA BKN030 BKN038 BKN048 29/24 A3005 RMK AO2 LTG DSNT S AND NW TSB1758RAB06 P0001
K7N0 251756Z AUTO 14007KT 10SM FEW027 SCT034 BKN049 31/24 A3005 RMK AO2 LTG DSNT ALQDS RAE24 SLP176 P0000 60000 T03060239 10317 20267 58003
K7N0 251656Z AUTO 15007KT 110V180 10SM -RA FEW026 SCT032 BKN070 31/24 A3005 RMK AO2 RAB46 SLP176 P0000 T03060239
K7N0 251617Z AUTO 13008KT 10SM SCT028 SCT033 32/23 A3006 RMK AO2
K7N0 251556Z AUTO VRB05KT 10SM BKN024 32/24 A3006 RMK AO2 SLP180 T03170239
K7N0 251527Z AUTO 16006KT 10SM BKN022 BKN029 30/24 A3006 RMK AO2
K7N0 251456Z AUTO 17007KT 10SM FEW022 SCT028 BKN110 30/24 A3006 RMK AO2 SLP179 T03000239 51013
K7N0 251356Z AUTO 14003KT 10SM CLR 29/23 A3005 RMK AO2 SLP176 T02890233
K7N0 251256Z AUTO 13005KT 10SM CLR 27/23 A3004 RMK AO2 SLP173 T02720228
K7N0 251156Z AUTO 17004KT 10SM CLR 27/22 A3002 RMK AO2 SLP167 60000 T02720222 10278 20261 53005
K7N0 251056Z AUTO 18003KT 10SM CLR 27/22 A3001 RMK AO2 SLP163 T02720222
K7N0 250956Z AUTO 13004KT 10SM BKN090 26/23 A3001 RMK AO2 RAB14E27 SLP161 P0000 T02610228
K7N0 250856Z AUTO 17007KT 10SM SCT020 SCT025 27/23 A3001 RMK AO2 SLP162 T02720228 53005
K7N0 250756Z AUTO 15004KT 10SM SCT090 SCT110 27/23 A3000 RMK AO2 SLP157 T02720228
K7N0 250656Z AUTO 17007KT 10SM SCT080 SCT090 27/22 A3000 RMK AO2 SLP157 T02670222
K7N0 250556Z AUTO 17005KT 10SM CLR 27/23 A2999 RMK AO2 SLP156 T02720233 10300 20267 50001
K7N0 250456Z AUTO VRB04KT 10SM CLR 27/23 A3000 RMK AO2 SLP160 T02670228 403280267
K7N0 250356Z AUTO VRB04KT 10SM CLR 27/23 A3001 RMK AO2 SLP161 T02720233
K7N0 250256Z AUTO 15005KT 10SM CLR 29/23 A2999 RMK AO2 SLP155 T02890233 53020
K7N0 250156Z AUTO 17005KT 10SM CLR 28/24 A2997 RMK AO2 SLP150 T02830244
K7N0 250056Z AUTO 16004KT 10SM CLR 29/24 A2995 RMK AO2 LTG DSNT N SLP140 T02890239
K7N0 242356Z AUTO 14006KT 10SM CLR 29/23 A2993 RMK AO2 SLP135 60000 T02940233 10328 20289 52002
K7N0 242322Z AUTO VRB04KT 10SM FEW025 SCT030 SCT080 29/23 A2994 RMK AO2
K7N0 242256Z AUTO 15007KT 10SM BKN028 BKN044 31/23 A2994 RMK AO2 SLP137 T03060233